Celtic Explorer — EIGB — position and weather

sailwx.info

Track history (hours):
 
Tides and Currents Weather Stations Pressure Air Temp Water Temp Dewpoint Dewpoint Depression Visibility Wind Speed Wind Dir Waves Ship Positions

Oceanographic research ship Celtic Explorer (Ireland)

Detailed information on ship capabilities available from University of Delaware's Ocean Information Center.

Last reported at 2019-Apr-24 12:22 UTC. Time now 2019-Apr-24 22:43 UTC.
Position N 53°13' W 009°11'.

Type: . MMSI: 250487000.

Date/timePositionNaut miles runAvg speedWind from/ knotsBaromVisibWave heightAir tempDewpointWater temp
2019-Apr-24 12:22N 53°13' W 009°11'21 6.7
2019-Apr-24 09:10N 53°12' W 009°46'2 8.1
2019-Apr-24 08:58N 53°12' W 009°49'6 8.3
2019-Apr-24 08:18N 53°13' W 009°58'4 7.9
2019-Apr-24 07:49N 53°14' W 010°04'2 7.8
2019-Apr-24 07:30N 53°15' W 010°08'8 7.9
2019-Apr-24 06:30N 53°20' W 010°18'8 8.5
2019-Apr-24 05:31N 53°28' W 010°21'1 8.5
2019-Apr-24 05:23N 53°29' W 010°22'4 8.6
2019-Apr-24 04:58N 53°33' W 010°23'4 9.0
2019-Apr-24 04:30N 53°37' W 010°25'5 9.6
2019-Apr-24 03:58N 53°42' W 010°25'4 9.2
2019-Apr-24 03:29N 53°46' W 010°25'4 9.0
2019-Apr-24 03:00N 53°51' W 010°24'4 8.9
2019-Apr-24 02:31N 53°55' W 010°24'4 8.5
2019-Apr-24 02:00N 53°59' W 010°24'4 8.1
2019-Apr-24 01:29N 54°04' W 010°24'4 8.1
2019-Apr-24 01:01N 54°07' W 010°21'4 8.6
2019-Apr-24 00:31N 54°11' W 010°17'4 8.4
2019-Apr-24 00:01N 54°14' W 010°13'4 8.9
2019-Apr-23 23:31N 54°18' W 010°09'2 3.0
2019-Apr-23 22:57N 54°19' W 010°10'4 9.3
2019-Apr-23 22:30N 54°23' W 010°14'3 3.3
2019-Apr-23 21:44N 54°25' W 010°17'5 5.5
2019-Apr-23 20:44N 54°29' W 010°22'8 2.1
2019-Apr-23 16:44N 54°33' W 010°35'1 2.4
2019-Apr-23 16:28N 54°32' W 010°36'4 2.7
2019-Apr-23 14:56N 54°29' W 010°39'6 4.9
2019-Apr-23 13:37N 54°29' W 010°50'2 2.6
2019-Apr-23 12:50N 54°31' W 010°48'1 3.2
2019-Apr-23 12:23N 54°32' W 010°47'2 3.9
2019-Apr-23 11:45N 54°34' W 010°44'25 1.9
2019-Apr-22 22:33N 54°45' W 010°06'0 2.1
2019-Apr-22 22:22N 54°45' W 010°06'1 3.2
2019-Apr-22 21:56N 54°47' W 010°05'7 5.2
2019-Apr-22 20:30N 54°48' W 009°52'7 9.3
2019-Apr-22 19:46N 54°46' W 009°40'1 2.0
2019-Apr-22 19:22N 54°46' W 009°39'1 2.3
2019-Apr-22 18:58N 54°47' W 009°38'3 1.7
2019-Apr-22 17:11N 54°45' W 009°34'2 2.8
2019-Apr-22 16:37N 54°43' W 009°36'1 3.0
2019-Apr-22 16:25N 54°43' W 009°36'2 3.3
2019-Apr-22 15:44N 54°41' W 009°39'9 9.8
2019-Apr-22 14:51N 54°33' W 009°43'3 6.9
2019-Apr-22 14:22N 54°30' W 009°45'4 2.6
2019-Apr-22 12:56N 54°30' W 009°38'39 9.2
2019-Apr-22 08:39N 54°32' W 008°31'3 2.8
2019-Apr-22 07:35N 54°31' W 008°36'90 2.6
2019-Apr-20 20:37N 55°47' W 007°10'0 2.5
2019-Apr-20 20:30N 55°47' W 007°10'4 7.2
2019-Apr-20 19:55N 55°45' W 007°04'3 7.2
2019-Apr-20 19:30N 55°44' W 006°59'2 3.2
2019-Apr-20 19:00N 55°43' W 006°57'2 3.8
2019-Apr-20 18:31N 55°44' W 006°59'2 3.3
2019-Apr-20 17:59N 55°46' W 007°01'  
2019-Apr-16 18:31N 54°51' W 009°30'510.1
2019-Apr-16 18:02N 54°49' W 009°23'410.1
2019-Apr-16 17:41N 54°47' W 009°17'1210.0
2019-Apr-16 16:31N 54°41' W 008°59'1210.3
2019-Apr-16 15:22N 54°36' W 008°41'510.0
2019-Apr-16 14:51N 54°35' W 008°32'4 6.4
2019-Apr-16 14:16N 54°37' W 008°27'1 0.0
2019-Apr-15 22:43N 54°38' W 008°26'0 0.0
2019-Apr-15 19:32N 54°38' W 008°26'0 0.0
2019-Apr-15 19:01N 54°38' W 008°26'0 0.0
2019-Apr-15 18:32N 54°38' W 008°26'0 0.1
2019-Apr-15 18:26N 54°38' W 008°26'0 0.0
2019-Apr-15 17:16N 54°38' W 008°26'0 0.0
2019-Apr-15 16:46N 54°38' W 008°26'0 0.0
2019-Apr-15 15:08N 54°38' W 008°26'0 0.0
2019-Apr-15 13:40N 54°38' W 008°26'0 0.0
2019-Apr-15 13:24N 54°38' W 008°26'0 0.0
2019-Apr-15 12:54N 54°38' W 008°26'0 0.0
2019-Apr-15 11:35N 54°38' W 008°26'0 0.0
2019-Apr-15 10:16N 54°38' W 008°26'0 0.0
2019-Apr-15 09:22N 54°38' W 008°26'0 0.0
2019-Apr-15 07:18N 54°38' W 008°26'0 0.0
2019-Apr-15 05:44N 54°38' W 008°26'0 0.0
2019-Apr-15 04:50N 54°38' W 008°26'0 0.0
2019-Apr-15 01:41N 54°38' W 008°26'0 0.0
2019-Apr-15 00:05N 54°38' W 008°26'0 0.0
2019-Apr-14 23:53N 54°38' W 008°26'0 0.0
2019-Apr-14 22:13N 54°38' W 008°26'0 0.0
2019-Apr-14 21:52N 54°38' W 008°26'0 0.0
2019-Apr-14 21:25N 54°38' W 008°26'0 0.0
2019-Apr-14 20:22N 54°38' W 008°26'0 0.0
2019-Apr-14 19:28N 54°38' W 008°26'0 0.0
2019-Apr-14 16:25N 54°38' W 008°26'0 0.0
2019-Apr-14 15:24N 54°38' W 008°26'0 0.0
2019-Apr-14 14:45N 54°38' W 008°26'0 0.0
2019-Apr-14 13:45N 54°38' W 008°26'0 0.0
2019-Apr-14 13:12N 54°38' W 008°26'  
Track history (hours):
 
Tides and Currents Weather Stations Pressure Air Temp Water Temp Dewpoint Dewpoint Depression Visibility Wind Speed Wind Dir Waves Ship Positions

Oceanographic research ship Celtic Explorer (Ireland)

Detailed information on ship capabilities available from University of Delaware's Ocean Information Center.

Last reported at 2019-Apr-24 12:22 UTC. Time now 2019-Apr-24 22:43 UTC.
Position N 53°13' W 009°11'.

Type: . MMSI: 250487000.

Date/timePositionNaut miles runAvg speedWind from/ knotsBaromVisibWave heightAir tempDewpointWater temp
2019-Apr-24 12:22N 53°13' W 009°11'21 6.7
2019-Apr-24 09:10N 53°12' W 009°46'2 8.1
2019-Apr-24 08:58N 53°12' W 009°49'6 8.3
2019-Apr-24 08:18N 53°13' W 009°58'4 7.9
2019-Apr-24 07:49N 53°14' W 010°04'2 7.8
2019-Apr-24 07:30N 53°15' W 010°08'8 7.9
2019-Apr-24 06:30N 53°20' W 010°18'8 8.5
2019-Apr-24 05:31N 53°28' W 010°21'1 8.5
2019-Apr-24 05:23N 53°29' W 010°22'4 8.6
2019-Apr-24 04:58N 53°33' W 010°23'4 9.0
2019-Apr-24 04:30N 53°37' W 010°25'5 9.6
2019-Apr-24 03:58N 53°42' W 010°25'4 9.2
2019-Apr-24 03:29N 53°46' W 010°25'4 9.0
2019-Apr-24 03:00N 53°51' W 010°24'4 8.9
2019-Apr-24 02:31N 53°55' W 010°24'4 8.5
2019-Apr-24 02:00N 53°59' W 010°24'4 8.1
2019-Apr-24 01:29N 54°04' W 010°24'4 8.1
2019-Apr-24 01:01N 54°07' W 010°21'4 8.6
2019-Apr-24 00:31N 54°11' W 010°17'4 8.4
2019-Apr-24 00:01N 54°14' W 010°13'4 8.9
2019-Apr-23 23:31N 54°18' W 010°09'2 3.0
2019-Apr-23 22:57N 54°19' W 010°10'4 9.3
2019-Apr-23 22:30N 54°23' W 010°14'3 3.3
2019-Apr-23 21:44N 54°25' W 010°17'5 5.5
2019-Apr-23 20:44N 54°29' W 010°22'8 2.1
2019-Apr-23 16:44N 54°33' W 010°35'1 2.4
2019-Apr-23 16:28N 54°32' W 010°36'4 2.7
2019-Apr-23 14:56N 54°29' W 010°39'6 4.9
2019-Apr-23 13:37N 54°29' W 010°50'2 2.6
2019-Apr-23 12:50N 54°31' W 010°48'1 3.2
2019-Apr-23 12:23N 54°32' W 010°47'2 3.9
2019-Apr-23 11:45N 54°34' W 010°44'25 1.9
2019-Apr-22 22:33N 54°45' W 010°06'0 2.1
2019-Apr-22 22:22N 54°45' W 010°06'1 3.2
2019-Apr-22 21:56N 54°47' W 010°05'7 5.2
2019-Apr-22 20:30N 54°48' W 009°52'7 9.3
2019-Apr-22 19:46N 54°46' W 009°40'1 2.0
2019-Apr-22 19:22N 54°46' W 009°39'1 2.3
2019-Apr-22 18:58N 54°47' W 009°38'3 1.7
2019-Apr-22 17:11N 54°45' W 009°34'2 2.8
2019-Apr-22 16:37N 54°43' W 009°36'1 3.0
2019-Apr-22 16:25N 54°43' W 009°36'2 3.3
2019-Apr-22 15:44N 54°41' W 009°39'9 9.8
2019-Apr-22 14:51N 54°33' W 009°43'3 6.9
2019-Apr-22 14:22N 54°30' W 009°45'4 2.6
2019-Apr-22 12:56N 54°30' W 009°38'39 9.2
2019-Apr-22 08:39N 54°32' W 008°31'3 2.8
2019-Apr-22 07:35N 54°31' W 008°36'90 2.6
2019-Apr-20 20:37N 55°47' W 007°10'0 2.5
2019-Apr-20 20:30N 55°47' W 007°10'4 7.2
2019-Apr-20 19:55N 55°45' W 007°04'3 7.2
2019-Apr-20 19:30N 55°44' W 006°59'2 3.2
2019-Apr-20 19:00N 55°43' W 006°57'2 3.8
2019-Apr-20 18:31N 55°44' W 006°59'2 3.3
2019-Apr-20 17:59N 55°46' W 007°01'  
2019-Apr-16 18:31N 54°51' W 009°30'510.1
2019-Apr-16 18:02N 54°49' W 009°23'410.1
2019-Apr-16 17:41N 54°47' W 009°17'1210.0
2019-Apr-16 16:31N 54°41' W 008°59'1210.3
2019-Apr-16 15:22N 54°36' W 008°41'510.0
2019-Apr-16 14:51N 54°35' W 008°32'4 6.4
2019-Apr-16 14:16N 54°37' W 008°27'1 0.0
2019-Apr-15 22:43N 54°38' W 008°26'0 0.0
2019-Apr-15 19:32N 54°38' W 008°26'0 0.0
2019-Apr-15 19:01N 54°38' W 008°26'0 0.0
2019-Apr-15 18:32N 54°38' W 008°26'0 0.1
2019-Apr-15 18:26N 54°38' W 008°26'0 0.0
2019-Apr-15 17:16N 54°38' W 008°26'0 0.0
2019-Apr-15 16:46N 54°38' W 008°26'0 0.0
2019-Apr-15 15:08N 54°38' W 008°26'0 0.0
2019-Apr-15 13:40N 54°38' W 008°26'0 0.0
2019-Apr-15 13:24N 54°38' W 008°26'0 0.0
2019-Apr-15 12:54N 54°38' W 008°26'0 0.0
2019-Apr-15 11:35N 54°38' W 008°26'0 0.0
2019-Apr-15 10:16N 54°38' W 008°26'0 0.0
2019-Apr-15 09:22N 54°38' W 008°26'0 0.0
2019-Apr-15 07:18N 54°38' W 008°26'0 0.0
2019-Apr-15 05:44N 54°38' W 008°26'0 0.0
2019-Apr-15 04:50N 54°38' W 008°26'0 0.0
2019-Apr-15 01:41N 54°38' W 008°26'0 0.0
2019-Apr-15 00:05N 54°38' W 008°26'0 0.0
2019-Apr-14 23:53N 54°38' W 008°26'0 0.0
2019-Apr-14 22:13N 54°38' W 008°26'0 0.0
2019-Apr-14 21:52N 54°38' W 008°26'0 0.0
2019-Apr-14 21:25N 54°38' W 008°26'0 0.0
2019-Apr-14 20:22N 54°38' W 008°26'0 0.0
2019-Apr-14 19:28N 54°38' W 008°26'0 0.0
2019-Apr-14 16:25N 54°38' W 008°26'0 0.0
2019-Apr-14 15:24N 54°38' W 008°26'0 0.0
2019-Apr-14 14:45N 54°38' W 008°26'0 0.0
2019-Apr-14 13:45N 54°38' W 008°26'0 0.0
2019-Apr-14 13:12N 54°38' W 008°26'  

Dump ship's entire track history